Time;durP1;ratioP1;P1;durP2;ratioP2;P2;SDS_P1;SDS_P2;PMS_P1;PMS_P2;Temp;Humidity;BMP_temperature;BMP_pressure;BME280_temperature;BME280_humidity;BME280_pressure;Samples;Min_cycle;Max_cycle;Signal;HPM_P1;HPM_P2
2022/12/29 00:01:36;;;;;;;3.90;1.70;;;8.40;99.90;;;;;;5066094;28;20327;-73
2022/12/29 00:04:02;;;;;;;3.30;1.70;;;8.40;99.90;;;;;;5067747;28;20213;-73
2022/12/29 00:06:28;;;;;;;2.13;1.40;;;8.40;99.90;;;;;;5065268;28;20214;-73
2022/12/29 00:08:54;;;;;;;3.90;1.70;;;8.40;99.90;;;;;;5087799;28;20677;-72
2022/12/29 00:11:21;;;;;;;4.57;1.60;;;8.40;99.90;;;;;;5068945;28;20569;-73
2022/12/29 00:16:33;;;;;;;2.37;1.60;;;8.40;99.90;;;;;;5068915;28;20206;-72
2022/12/29 00:18:59;;;;;;;2.70;1.80;;;8.40;99.90;;;;;;5070191;28;20203;-73
2022/12/29 00:35:14;;;;;;;2.07;1.03;;;8.50;99.90;;;;;;5066067;28;20221;-73
2022/12/29 00:45:56;;;;;;;1.70;1.30;;;8.50;99.90;;;;;;5067331;28;20202;-73
2022/12/29 00:51:07;;;;;;;4.07;1.70;;;8.50;99.90;;;;;;5066268;28;20190;-72
2022/12/29 00:53:33;;;;;;;2.43;1.47;;;8.50;99.90;;;;;;5086776;28;20210;-74
2022/12/29 00:55:59;;;;;;;8.10;1.97;;;8.50;99.90;;;;;;5085511;28;20206;-74
2022/12/29 00:58:29;;;;;;;2.53;1.53;;;8.50;99.90;;;;;;5069606;28;20606;-73
2022/12/29 01:01:02;;;;;;;2.83;1.57;;;8.50;99.90;;;;;;5063062;28;20209;-73
2022/12/29 01:03:27;;;;;;;2.20;1.70;;;8.50;99.90;;;;;;5068588;28;20186;-74
2022/12/29 01:05:53;;;;;;;3.03;1.33;;;8.50;99.90;;;;;;5086813;28;20665;-73
2022/12/29 01:08:19;;;;;;;3.73;1.63;;;8.50;99.90;;;;;;5062464;28;20212;-74
2022/12/29 01:10:44;;;;;;;2.17;1.40;;;8.50;99.90;;;;;;5067271;28;20202;-73
2022/12/29 01:13:10;;;;;;;3.20;1.73;;;8.50;99.90;;;;;;5066354;28;20217;-73
2022/12/29 01:15:36;;;;;;;3.07;1.50;;;8.50;99.90;;;;;;5068916;28;20799;-73
2022/12/29 01:18:01;;;;;;;2.00;1.53;;;8.50;99.90;;;;;;5084035;28;20452;-72
2022/12/29 01:20:28;;;;;;;3.60;1.47;;;8.50;99.90;;;;;;5062884;28;20248;-72
2022/12/29 01:22:54;;;;;;;3.53;1.70;;;8.50;99.90;;;;;;5067509;28;20207;-72
2022/12/29 01:25:20;;;;;;;2.83;1.80;;;8.60;99.90;;;;;;5068317;28;20204;-74
2022/12/29 01:27:46;;;;;;;2.57;1.43;;;8.60;99.90;;;;;;5086264;28;20256;-74
2022/12/29 01:30:12;;;;;;;2.23;1.33;;;8.60;99.90;;;;;;5066129;28;20179;-74
2022/12/29 01:32:37;;;;;;;2.90;1.30;;;8.60;99.90;;;;;;5070190;28;20186;-74
2022/12/29 01:35:03;;;;;;;3.43;1.87;;;8.60;99.90;;;;;;5062396;28;20214;-73
2022/12/29 01:37:29;;;;;;;1.70;1.30;;;8.60;99.90;;;;;;5066342;28;20195;-72
2022/12/29 01:39:55;;;;;;;2.37;1.50;;;8.70;99.90;;;;;;5067003;28;20232;-72
2022/12/29 01:42:24;;;;;;;3.23;1.80;;;8.60;99.90;;;;;;5065925;28;20194;-72
2022/12/29 01:44:50;;;;;;;2.43;1.23;;;8.60;99.90;;;;;;5086811;28;20198;-72
2022/12/29 01:47:20;;;;;;;4.10;1.60;;;8.60;99.90;;;;;;5082660;28;20591;-72
2022/12/29 01:49:46;;;;;;;2.40;1.70;;;8.50;99.90;;;;;;5066517;28;20206;-71
2022/12/29 01:52:12;;;;;;;4.23;1.40;;;8.50;99.90;;;;;;5091179;28;20284;-71
2022/12/29 01:54:43;;;;;;;3.17;1.40;;;8.50;99.90;;;;;;5094264;28;20206;-73
2022/12/29 01:57:14;;;;;;;3.27;1.70;;;8.50;99.90;;;;;;5063675;28;20167;-74
2022/12/29 01:59:50;;;;;;;2.80;1.53;;;8.50;99.90;;;;;;5085616;28;20232;-74
2022/12/29 02:02:16;;;;;;;4.60;1.90;;;8.50;99.90;;;;;;5062008;28;20210;-74
2022/12/29 02:04:46;;;;;;;3.13;1.70;;;8.50;99.90;;;;;;5067151;28;20280;-73
2022/12/29 02:07:19;;;;;;;3.37;1.53;;;8.50;99.90;;;;;;5065843;28;20226;-73
2022/12/29 02:09:48;;;;;;;3.07;1.80;;;8.40;99.90;;;;;;5060702;28;20210;-74
2022/12/29 02:12:15;;;;;;;2.03;1.43;;;8.40;99.90;;;;;;5065257;28;20213;-73
2022/12/29 02:14:41;;;;;;;2.97;1.70;;;8.40;99.90;;;;;;5063547;28;20673;-74
2022/12/29 02:17:30;;;;;;;2.63;1.70;;;8.40;99.90;;;;;;5060149;28;20227;-73
2022/12/29 02:20:27;;;;;;;3.13;1.83;;;8.50;99.90;;;;;;5083870;28;20734;-72
2022/12/29 02:23:14;;;;;;;1.73;1.40;;;8.50;99.90;;;;;;5052521;28;20217;-74
2022/12/29 02:26:09;;;;;;;1.80;1.33;;;8.50;99.90;;;;;;5065655;28;20203;-73
2022/12/29 02:29:07;;;;;;;1.63;1.30;;;8.50;99.90;;;;;;5077330;28;20213;-73
2022/12/29 02:31:59;;;;;;;3.23;1.57;;;8.50;99.90;;;;;;5063009;28;20214;-73
2022/12/29 02:34:57;;;;;;;1.63;1.23;;;8.60;99.90;;;;;;5062829;28;20203;-73
2022/12/29 02:37:26;;;;;;;4.07;1.40;;;8.60;99.90;;;;;;5076039;28;20204;-72
2022/12/29 02:40:25;;;;;;;2.40;1.40;;;8.60;99.90;;;;;;5067421;28;20268;-73
2022/12/29 02:43:06;;;;;;;3.20;1.37;;;8.60;99.90;;;;;;5080856;28;20214;-74
2022/12/29 02:46:03;;;;;;;1.90;1.40;;;8.70;99.90;;;;;;5062887;28;20244;-74
2022/12/29 02:48:38;;;;;;;2.50;1.30;;;8.70;99.90;;;;;;5061301;28;20230;-74
2022/12/29 02:51:14;;;;;;;5.50;1.40;;;8.80;99.90;;;;;;5088039;28;20186;-74
2022/12/29 02:56:25;;;;;;;2.27;1.60;;;8.80;99.90;;;;;;5065824;28;20348;-74
2022/12/29 02:58:50;;;;;;;2.90;1.70;;;8.80;99.90;;;;;;5088943;28;20673;-73
2022/12/29 03:01:28;;;;;;;2.33;1.17;;;8.90;99.90;;;;;;5068281;28;20210;-73
2022/12/29 03:04:19;;;;;;;3.63;1.50;;;9.00;99.90;;;;;;5065918;28;20199;-73
2022/12/29 03:06:53;;;;;;;2.03;1.20;;;9.00;99.90;;;;;;5070105;28;20214;-74
2022/12/29 03:09:21;;;;;;;2.63;1.27;;;9.00;99.90;;;;;;5082806;28;20307;-73
2022/12/29 03:12:10;;;;;;;4.47;1.40;;;9.10;99.90;;;;;;5070516;28;20191;-72
2022/12/29 03:18:03;;;;;;;1.90;1.30;;;9.20;99.90;;;;;;5065479;28;20197;-73
2022/12/29 03:20:38;;;;;;;3.37;1.40;;;9.30;99.90;;;;;;5066476;28;20201;-74
2022/12/29 03:23:06;;;;;;;4.63;1.53;;;9.30;99.90;;;;;;5066328;28;20245;-73
2022/12/29 03:25:40;;;;;;;2.47;1.37;;;9.30;99.90;;;;;;5071330;28;20203;-73
2022/12/29 03:28:29;;;;;;;1.93;1.47;;;9.30;99.90;;;;;;5069987;28;20306;-73
2022/12/29 03:30:57;;;;;;;3.43;1.40;;;9.40;99.90;;;;;;5068219;28;20206;-73
2022/12/29 03:33:27;;;;;;;2.70;1.50;;;9.40;99.90;;;;;;5070706;28;20693;-73
2022/12/29 03:35:59;;;;;;;2.17;1.30;;;9.40;99.90;;;;;;5084767;28;20159;-73
2022/12/29 03:38:55;;;;;;;1.97;1.47;;;9.40;99.90;;;;;;5069658;28;20210;-73
2022/12/29 03:41:32;;;;;;;4.20;1.33;;;9.40;99.90;;;;;;5066742;28;20199;-73
2022/12/29 03:43:58;;;;;;;2.37;1.20;;;9.40;99.90;;;;;;5072209;28;20203;-73
2022/12/29 03:46:23;;;;;;;2.20;1.47;;;9.40;99.90;;;;;;5071325;28;20229;-74
2022/12/29 03:48:49;;;;;;;3.03;1.53;;;9.40;99.90;;;;;;5072270;28;20256;-72
2022/12/29 03:51:14;;;;;;;3.87;1.20;;;9.50;99.90;;;;;;5068476;28;20664;-74
2022/12/29 03:53:40;;;;;;;1.80;1.43;;;9.50;99.90;;;;;;5072773;28;20183;-74
2022/12/29 03:56:06;;;;;;;2.07;0.97;;;9.50;99.90;;;;;;5072112;28;20293;-72
2022/12/29 03:58:31;;;;;;;1.50;1.27;;;9.50;99.90;;;;;;5072075;28;20764;-74
2022/12/29 04:00:57;;;;;;;3.30;1.53;;;9.60;99.90;;;;;;5067557;28;20223;-74
2022/12/29 04:03:23;;;;;;;2.67;1.60;;;9.60;99.90;;;;;;5072295;28;20225;-73
2022/12/29 04:05:48;;;;;;;2.73;1.50;;;9.60;99.90;;;;;;5088203;28;20512;-72
2022/12/29 04:08:14;;;;;;;5.77;1.60;;;9.70;99.90;;;;;;5068417;28;20594;-73
2022/12/29 04:10:40;;;;;;;1.20;1.10;;;9.70;99.90;;;;;;5066300;28;20256;-73
2022/12/29 04:13:05;;;;;;;2.43;1.10;;;9.70;99.90;;;;;;5071837;28;20293;-73
2022/12/29 04:15:31;;;;;;;2.63;1.90;;;9.80;99.90;;;;;;5071634;28;20214;-72
2022/12/29 04:17:57;;;;;;;3.57;1.50;;;9.80;99.90;;;;;;5087613;28;20186;-73
2022/12/29 04:23:07;;;;;;;2.07;1.30;;;9.80;99.90;;;;;;5068126;28;20229;-73
2022/12/29 04:25:33;;;;;;;1.93;1.30;;;9.80;99.90;;;;;;5068124;28;20222;-74
2022/12/29 04:27:59;;;;;;;3.60;1.40;;;9.80;99.90;;;;;;5071261;28;20211;-73
2022/12/29 04:30:25;;;;;;;2.43;1.30;;;9.80;99.90;;;;;;5070856;28;20216;-73
2022/12/29 04:32:51;;;;;;;3.33;1.30;;;9.80;99.90;;;;;;5071734;28;20309;-73
2022/12/29 04:35:16;;;;;;;1.93;1.30;;;9.80;99.90;;;;;;5071331;28;20202;-73
2022/12/29 04:37:42;;;;;;;4.70;1.93;;;9.80;99.90;;;;;;5071350;28;20207;-73
2022/12/29 04:40:09;;;;;;;3.03;1.20;;;9.80;99.90;;;;;;5069308;28;20269;-74
2022/12/29 04:42:34;;;;;;;2.90;1.47;;;9.80;99.90;;;;;;5086597;28;20210;-73
2022/12/29 04:45:00;;;;;;;1.90;1.00;;;9.80;99.90;;;;;;5066331;28;20540;-72
2022/12/29 04:47:26;;;;;;;3.33;1.00;;;9.80;99.90;;;;;;5072083;28;20203;-73
2022/12/29 04:49:51;;;;;;;2.10;1.50;;;9.80;99.90;;;;;;5070249;28;20296;-73
2022/12/29 04:52:17;;;;;;;1.97;1.20;;;9.80;99.90;;;;;;5071072;28;20234;-74
2022/12/29 04:54:42;;;;;;;3.87;1.10;;;9.80;99.90;;;;;;5071707;28;20234;-74
2022/12/29 04:57:08;;;;;;;1.47;1.10;;;9.80;99.90;;;;;;5070977;28;20522;-73
2022/12/29 04:59:34;;;;;;;2.07;1.30;;;9.70;99.90;;;;;;5070609;28;20159;-73
2022/12/29 05:01:59;;;;;;;2.03;1.47;;;9.70;99.90;;;;;;5070555;28;20210;-72
2022/12/29 05:04:25;;;;;;;4.30;1.50;;;9.70;99.90;;;;;;5070782;28;20561;-73
2022/12/29 05:06:50;;;;;;;2.07;1.40;;;9.70;99.90;;;;;;5086296;28;20198;-74
2022/12/29 05:09:16;;;;;;;2.73;1.30;;;9.80;99.90;;;;;;5069635;28;20273;-73
2022/12/29 05:11:42;;;;;;;1.63;1.27;;;9.80;99.90;;;;;;5068911;28;20654;-73
2022/12/29 05:14:07;;;;;;;3.33;1.50;;;9.80;99.90;;;;;;5067270;28;20211;-74
2022/12/29 05:16:33;;;;;;;2.40;1.47;;;9.90;99.90;;;;;;5070511;28;20661;-73
2022/12/29 05:18:58;;;;;;;2.90;1.63;;;9.80;99.90;;;;;;5068276;28;20198;-73
2022/12/29 05:21:24;;;;;;;4.47;1.43;;;9.90;99.90;;;;;;5070184;28;20198;-74
2022/12/29 05:23:50;;;;;;;1.10;1.00;;;9.90;99.90;;;;;;5071083;28;20163;-73
2022/12/29 05:26:15;;;;;;;3.27;1.30;;;9.90;99.90;;;;;;5066678;28;20222;-74
2022/12/29 05:28:41;;;;;;;2.70;1.70;;;9.90;99.90;;;;;;5070715;28;20203;-74
2022/12/29 05:31:06;;;;;;;1.80;1.20;;;9.90;99.90;;;;;;5067827;28;20549;-73
2022/12/29 05:33:32;;;;;;;4.93;1.40;;;9.90;99.90;;;;;;5081457;28;20237;-73
2022/12/29 05:36:12;;;;;;;1.47;1.10;;;10.00;99.90;;;;;;5079506;28;20297;-74
2022/12/29 05:38:38;;;;;;;1.47;1.30;;;10.00;99.90;;;;;;5063787;28;20224;-74
2022/12/29 05:41:03;;;;;;;3.10;1.53;;;10.00;99.90;;;;;;5066542;28;20646;-74
2022/12/29 05:43:29;;;;;;;3.23;1.57;;;10.00;99.90;;;;;;5068676;28;20820;-73
2022/12/29 05:45:55;;;;;;;1.67;1.30;;;10.10;99.90;;;;;;5068762;28;20230;-73
2022/12/29 05:48:21;;;;;;;2.53;1.30;;;10.10;99.90;;;;;;5068394;28;20195;-73
2022/12/29 05:50:50;;;;;;;3.27;1.40;;;10.10;99.90;;;;;;5069843;28;20198;-73
2022/12/29 05:53:17;;;;;;;1.40;1.17;;;10.20;99.90;;;;;;5085407;28;20195;-73
2022/12/29 05:55:47;;;;;;;2.83;1.53;;;10.20;99.90;;;;;;5068671;28;20330;-73
2022/12/29 05:58:13;;;;;;;2.57;1.30;;;10.20;99.90;;;;;;5065131;28;20273;-74
2022/12/29 06:00:38;;;;;;;1.90;1.20;;;10.20;99.90;;;;;;5084632;28;20218;-74
2022/12/29 06:03:04;;;;;;;2.93;1.67;;;10.30;99.90;;;;;;5067942;28;20768;-73
2022/12/29 06:05:30;;;;;;;5.03;1.60;;;10.30;99.90;;;;;;5062958;28;20210;-72
2022/12/29 06:07:56;;;;;;;3.03;1.30;;;10.30;99.90;;;;;;5066527;28;20230;-74
2022/12/29 06:10:21;;;;;;;2.70;1.20;;;10.40;99.90;;;;;;5068097;28;20207;-73
2022/12/29 06:12:47;;;;;;;2.30;1.30;;;10.40;99.90;;;;;;5065107;28;20210;-71
2022/12/29 06:15:13;;;;;;;2.13;1.40;;;10.40;99.90;;;;;;5066998;28;20179;-71
2022/12/29 06:17:39;;;;;;;4.00;1.40;;;10.40;99.90;;;;;;5085934;28;20639;-73
2022/12/29 06:20:05;;;;;;;2.20;1.30;;;10.40;99.90;;;;;;5062838;28;20620;-72
2022/12/29 06:22:31;;;;;;;1.67;1.07;;;10.40;99.90;;;;;;5068768;28;20209;-74
2022/12/29 06:24:57;;;;;;;2.50;1.40;;;10.40;99.90;;;;;;5062405;28;20345;-73
2022/12/29 06:27:22;;;;;;;2.33;1.20;;;10.50;99.90;;;;;;5066600;28;20257;-74
2022/12/29 06:29:49;;;;;;;2.53;1.10;;;10.50;99.90;;;;;;5068383;28;20226;-72
2022/12/29 06:32:15;;;;;;;1.33;1.23;;;10.50;99.90;;;;;;5060575;28;20729;-73
2022/12/29 06:34:41;;;;;;;2.80;1.00;;;10.60;99.90;;;;;;5066313;28;20282;-74
2022/12/29 06:37:06;;;;;;;1.70;1.10;;;10.60;99.90;;;;;;5066096;28;20234;-72
2022/12/29 06:39:32;;;;;;;1.13;1.00;;;10.50;99.90;;;;;;5062995;28;20700;-73
2022/12/29 06:41:58;;;;;;;1.90;1.27;;;10.60;99.90;;;;;;5066778;28;20641;-73
2022/12/29 06:44:23;;;;;;;1.30;1.20;;;10.60;99.90;;;;;;5084817;28;20293;-74
2022/12/29 06:46:49;;;;;;;3.80;1.03;;;10.60;99.90;;;;;;5085115;28;20587;-73
2022/12/29 06:49:15;;;;;;;3.50;1.50;;;10.60;99.90;;;;;;5061929;28;20687;-73
2022/12/29 06:51:41;;;;;;;1.60;1.30;;;10.60;99.90;;;;;;5062837;28;20217;-73
2022/12/29 06:54:06;;;;;;;2.07;1.40;;;10.60;99.90;;;;;;5064115;28;20178;-72
2022/12/29 06:56:32;;;;;;;1.73;1.20;;;10.70;99.90;;;;;;5068271;28;20209;-72
2022/12/29 06:58:59;;;;;;;1.13;1.03;;;10.70;99.90;;;;;;5063471;28;20331;-73
2022/12/29 07:01:25;;;;;;;1.97;1.00;;;10.60;99.90;;;;;;5064479;28;20625;-73
2022/12/29 07:03:51;;;;;;;1.67;1.10;;;10.60;99.90;;;;;;5084944;28;20203;-72
2022/12/29 07:06:17;;;;;;;1.33;1.23;;;10.60;99.90;;;;;;5061147;28;20260;-73
2022/12/29 07:08:42;;;;;;;1.87;1.17;;;10.50;99.90;;;;;;5067176;28;20187;-72
2022/12/29 07:11:08;;;;;;;1.57;1.30;;;10.50;99.90;;;;;;5060274;28;20290;-73
2022/12/29 07:13:34;;;;;;;1.60;1.17;;;10.50;99.90;;;;;;5063785;28;20206;-73
2022/12/29 07:16:04;;;;;;;2.10;1.20;;;10.40;99.90;;;;;;5081865;28;20203;-73
2022/12/29 07:18:29;;;;;;;2.60;1.40;;;10.50;99.90;;;;;;5062715;28;20238;-73
2022/12/29 07:20:55;;;;;;;3.43;1.50;;;10.50;99.90;;;;;;5063740;28;20604;-73
2022/12/29 07:23:21;;;;;;;1.80;1.10;;;10.50;99.90;;;;;;5066967;28;20202;-73
2022/12/29 07:25:46;;;;;;;2.43;1.40;;;10.40;99.90;;;;;;5062591;28;20272;-72
2022/12/29 07:28:12;;;;;;;1.77;1.30;;;10.40;99.90;;;;;;5063436;28;20223;-74
2022/12/29 07:30:38;;;;;;;1.53;0.90;;;10.40;99.90;;;;;;5083951;28;20215;-72
2022/12/29 07:33:04;;;;;;;3.43;1.37;;;10.40;99.90;;;;;;5060585;28;20232;-72
2022/12/29 07:35:30;;;;;;;1.43;1.03;;;10.40;99.90;;;;;;5069043;28;20699;-73
2022/12/29 07:37:55;;;;;;;2.83;1.20;;;10.40;99.90;;;;;;5068005;28;20211;-74
2022/12/29 07:40:21;;;;;;;2.60;1.17;;;10.40;99.90;;;;;;5067918;28;20643;-74
2022/12/29 07:42:47;;;;;;;2.37;1.10;;;10.30;99.90;;;;;;5070135;28;20328;-72
2022/12/29 07:45:12;;;;;;;2.30;1.33;;;10.40;99.90;;;;;;5064492;28;20275;-73
2022/12/29 07:47:38;;;;;;;1.40;0.93;;;10.40;99.90;;;;;;5068528;28;20193;-74
2022/12/29 07:50:04;;;;;;;1.37;1.17;;;10.40;99.90;;;;;;5069145;28;20214;-72
2022/12/29 07:52:30;;;;;;;1.60;1.17;;;10.40;99.90;;;;;;5088853;28;20206;-72
2022/12/29 07:54:56;;;;;;;2.10;1.20;;;10.50;99.90;;;;;;5071637;28;20217;-73
2022/12/29 07:57:21;;;;;;;1.67;1.40;;;10.50;99.90;;;;;;5070997;28;20315;-73
2022/12/29 07:59:47;;;;;;;2.80;1.23;;;10.50;99.90;;;;;;5087921;28;20545;-73
2022/12/29 08:02:12;;;;;;;2.03;1.30;;;10.50;99.90;;;;;;5101185;22;20229;-70
2022/12/29 08:04:38;;;;;;;2.20;1.10;;;10.50;99.90;;;;;;5048676;28;20298;-75
2022/12/29 08:07:04;;;;;;;1.50;1.20;;;10.60;99.90;;;;;;5063656;28;20572;-73
2022/12/29 08:09:30;;;;;;;2.00;1.10;;;10.60;99.90;;;;;;5056866;28;20794;-75
2022/12/29 08:11:55;;;;;;;1.43;1.13;;;10.60;99.90;;;;;;5068553;28;20163;-75
2022/12/29 08:14:21;;;;;;;1.57;0.90;;;10.50;99.90;;;;;;5059387;28;20219;-74
2022/12/29 08:16:47;;;;;;;1.87;1.20;;;10.50;99.90;;;;;;5042163;28;20204;-74
2022/12/29 08:19:13;;;;;;;3.73;1.50;;;10.50;99.90;;;;;;5064582;28;20222;-74
2022/12/29 08:21:39;;;;;;;1.67;1.07;;;10.50;99.90;;;;;;5060469;28;20214;-74
2022/12/29 08:24:05;;;;;;;1.40;1.20;;;10.50;99.90;;;;;;5058113;28;20207;-73
2022/12/29 08:26:31;;;;;;;1.77;1.10;;;10.60;99.90;;;;;;5038524;28;20228;-74
2022/12/29 08:28:57;;;;;;;3.73;1.60;;;10.60;99.90;;;;;;5055549;28;20692;-74
2022/12/29 08:31:23;;;;;;;1.83;1.40;;;10.50;99.90;;;;;;5055398;28;20203;-75
2022/12/29 08:33:48;;;;;;;2.23;1.30;;;10.50;99.90;;;;;;5058588;28;20212;-74
2022/12/29 08:36:14;;;;;;;3.80;1.30;;;10.50;99.90;;;;;;5042135;28;20240;-73
2022/12/29 08:38:40;;;;;;;3.30;1.17;;;10.50;99.90;;;;;;5038118;28;20175;-74
2022/12/29 08:41:06;;;;;;;1.80;1.20;;;10.50;99.90;;;;;;5061159;28;20281;-74
2022/12/29 08:43:31;;;;;;;1.60;1.30;;;10.50;99.90;;;;;;5050188;28;20384;-74
2022/12/29 08:45:58;;;;;;;2.23;1.30;;;10.50;99.90;;;;;;5051119;28;20211;-73
2022/12/29 08:48:24;;;;;;;1.70;1.03;;;10.60;99.90;;;;;;5038124;28;20207;-74
2022/12/29 08:50:50;;;;;;;2.47;1.10;;;10.70;99.90;;;;;;5052046;28;20216;-74
2022/12/29 08:53:17;;;;;;;1.50;0.97;;;10.90;99.90;;;;;;5057390;28;20214;-74
2022/12/29 08:55:46;;;;;;;2.10;1.20;;;10.90;99.90;;;;;;5053485;28;20306;-74
2022/12/29 08:58:14;;;;;;;2.07;1.17;;;11.00;99.90;;;;;;5055454;28;20264;-74
2022/12/29 09:00:41;;;;;;;1.67;1.10;;;11.10;99.90;;;;;;5057073;28;20204;-73
2022/12/29 09:03:06;;;;;;;1.83;1.20;;;11.10;99.90;;;;;;5056053;28;20211;-74
2022/12/29 09:05:32;;;;;;;3.17;1.40;;;11.10;99.90;;;;;;5055343;28;20574;-74
2022/12/29 09:07:58;;;;;;;1.83;1.43;;;11.10;99.90;;;;;;5039469;28;20203;-74
2022/12/29 09:10:23;;;;;;;3.07;1.30;;;11.20;99.90;;;;;;5039461;28;20203;-74
2022/12/29 09:12:49;;;;;;;3.27;1.40;;;11.10;99.90;;;;;;5051220;28;20218;-74
2022/12/29 09:15:15;;;;;;;3.63;1.10;;;11.10;99.90;;;;;;5033035;28;20554;-74
2022/12/29 09:17:44;;;;;;;2.33;1.10;;;11.20;99.90;;;;;;5052303;28;20167;-75
2022/12/29 09:20:15;;;;;;;2.20;1.23;;;11.10;99.90;;;;;;5037818;28;20216;-75
2022/12/29 09:22:41;;;;;;;1.17;0.90;;;11.20;99.90;;;;;;5031939;28;20245;-74
2022/12/29 09:25:08;;;;;;;7.37;4.10;;;11.10;99.90;;;;;;5058252;28;20215;-74
2022/12/29 09:27:35;;;;;;;7.37;2.37;;;11.20;99.90;;;;;;5056265;28;20218;-75
2022/12/29 09:30:01;;;;;;;3.03;1.77;;;11.20;99.90;;;;;;5052447;28;20286;-76
2022/12/29 09:32:26;;;;;;;1.77;1.17;;;11.30;99.90;;;;;;5036901;28;20305;-72
2022/12/29 09:34:52;;;;;;;1.60;0.97;;;11.30;99.90;;;;;;5056196;28;20207;-74
2022/12/29 09:37:18;;;;;;;1.70;1.00;;;11.30;99.90;;;;;;5033126;28;20241;-74
2022/12/29 09:39:43;;;;;;;2.27;1.10;;;11.30;99.90;;;;;;5050506;28;20242;-75
2022/12/29 09:42:30;;;;;;;3.23;1.30;;;11.30;99.90;;;;;;5036370;28;20187;-74
2022/12/29 09:45:11;;;;;;;2.63;1.50;;;11.30;99.90;;;;;;5052815;28;20164;-74
2022/12/29 09:47:37;;;;;;;3.20;1.50;;;11.40;99.90;;;;;;5039064;28;20341;-74
2022/12/29 09:50:26;;;;;;;2.47;1.03;;;11.40;99.90;;;;;;5035312;28;20219;-73
2022/12/29 09:53:13;;;;;;;2.97;2.00;;;11.40;99.90;;;;;;5032500;28;20215;-72
2022/12/29 09:55:43;;;;;;;4.23;1.50;;;11.50;99.90;;;;;;5052644;28;20249;-74
2022/12/29 09:58:17;;;;;;;2.43;1.10;;;11.60;99.90;;;;;;5035007;28;20208;-73
2022/12/29 10:01:05;;;;;;;3.13;1.10;;;11.70;99.90;;;;;;5053302;28;20204;-75
2022/12/29 10:03:45;;;;;;;4.27;1.60;;;11.70;99.90;;;;;;5034760;28;20250;-75
2022/12/29 10:06:31;;;;;;;2.30;1.20;;;11.80;99.90;;;;;;5035654;28;20179;-74
2022/12/29 10:09:21;;;;;;;2.53;1.07;;;11.80;99.90;;;;;;5054740;28;20195;-74
2022/12/29 10:12:22;;;;;;;3.27;1.00;;;11.80;99.90;;;;;;5050905;28;20563;-74
2022/12/29 10:15:25;;;;;;;2.10;1.20;;;11.70;99.90;;;;;;4965541;28;20351;-74
2022/12/29 10:17:57;;;;;;;4.40;2.20;;;11.70;99.90;;;;;;5052111;28;20195;-74
2022/12/29 10:20:49;;;;;;;1.10;0.97;;;11.80;99.90;;;;;;5048783;28;20211;-74
2022/12/29 10:23:20;;;;;;;1.90;1.13;;;11.80;99.90;;;;;;5050078;28;20704;-74
2022/12/29 10:25:46;;;;;;;2.37;1.30;;;12.00;99.90;;;;;;5051462;28;20199;-75
2022/12/29 10:28:31;;;;;;;2.73;1.30;;;12.10;99.90;;;;;;5056287;28;20225;-74
2022/12/29 10:31:00;;;;;;;2.37;1.37;;;12.10;99.90;;;;;;5053902;28;20207;-73
2022/12/29 10:33:36;;;;;;;2.73;1.30;;;12.30;99.90;;;;;;5056828;28;20195;-74
2022/12/29 10:36:27;;;;;;;2.53;1.10;;;12.50;99.90;;;;;;5056945;28;20250;-74
2022/12/29 10:39:03;;;;;;;1.30;0.90;;;12.70;99.90;;;;;;5051613;28;20215;-74
2022/12/29 10:41:39;;;;;;;1.80;0.93;;;12.80;99.90;;;;;;5055524;28;20664;-73
2022/12/29 10:44:04;;;;;;;2.27;1.27;;;12.90;99.90;;;;;;5058318;28;20217;-73
2022/12/29 10:46:35;;;;;;;2.83;1.57;;;13.00;99.90;;;;;;5056617;28;20202;-74
2022/12/29 10:49:01;;;;;;;2.03;1.13;;;13.00;99.90;;;;;;5060485;28;20261;-74
2022/12/29 10:51:38;;;;;;;2.77;1.20;;;12.90;99.90;;;;;;5054921;28;20273;-74
2022/12/29 10:54:16;;;;;;;1.57;1.00;;;12.90;99.90;;;;;;5055845;28;20583;-74
2022/12/29 10:57:02;;;;;;;4.30;1.00;;;12.80;99.90;;;;;;5056711;28;20235;-74
2022/12/29 10:59:35;;;;;;;1.50;1.17;;;12.70;99.90;;;;;;5047132;28;20203;-74
2022/12/29 11:02:09;;;;;;;1.60;1.07;;;12.70;99.90;;;;;;5057134;28;20848;-74
2022/12/29 11:05:10;;;;;;;2.60;1.40;;;12.70;99.90;;;;;;5048780;28;20265;-75
2022/12/29 11:07:37;;;;;;;3.20;0.80;;;12.60;99.90;;;;;;4991222;28;20879;-74
2022/12/29 11:10:30;;;;;;;1.53;1.03;;;12.60;99.90;;;;;;5044697;28;20700;-74
2022/12/29 11:13:11;;;;;;;1.30;1.10;;;12.60;99.90;;;;;;5055157;28;20207;-74
2022/12/29 11:15:48;;;;;;;1.87;1.07;;;12.60;99.90;;;;;;5059021;28;20215;-73
2022/12/29 11:18:22;;;;;;;1.97;1.23;;;12.60;99.90;;;;;;5057915;28;20707;-74
2022/12/29 11:20:50;;;;;;;2.20;1.00;;;12.50;99.90;;;;;;5061542;28;20163;-73
2022/12/29 11:23:27;;;;;;;2.10;1.10;;;12.60;99.90;;;;;;5059119;28;20203;-74
2022/12/29 11:26:19;;;;;;;2.03;0.97;;;12.60;99.90;;;;;;5053913;28;20202;-72
2022/12/29 11:29:03;;;;;;;1.77;1.20;;;12.50;99.90;;;;;;5056634;28;20211;-74
2022/12/29 11:31:29;;;;;;;2.13;0.90;;;12.60;99.90;;;;;;5053568;28;20199;-73
2022/12/29 11:33:55;;;;;;;2.40;1.03;;;12.60;99.90;;;;;;5052661;28;20571;-75
2022/12/29 11:36:23;;;;;;;3.20;1.13;;;12.50;99.90;;;;;;5060960;28;20174;-71
2022/12/29 11:38:52;;;;;;;2.43;1.17;;;12.50;99.90;;;;;;5055965;28;20233;-74
2022/12/29 11:41:27;;;;;;;1.93;1.17;;;12.40;99.90;;;;;;5058681;28;20203;-74
2022/12/29 11:44:02;;;;;;;3.47;1.10;;;12.40;99.90;;;;;;5055872;28;20230;-72
2022/12/29 11:46:32;;;;;;;2.17;1.50;;;12.30;99.90;;;;;;5049241;28;20206;-73
2022/12/29 11:49:00;;;;;;;1.80;1.07;;;12.30;99.90;;;;;;5058632;28;20222;-73
2022/12/29 11:51:36;;;;;;;2.97;1.40;;;12.30;99.90;;;;;;5056683;28;20235;-73
2022/12/29 11:54:04;;;;;;;1.33;0.87;;;12.30;99.90;;;;;;5053878;28;20200;-74
2022/12/29 11:56:38;;;;;;;3.30;1.10;;;12.20;99.90;;;;;;5059739;28;20211;-74
2022/12/29 11:59:38;;;;;;;1.53;0.90;;;12.20;99.90;;;;;;5052939;28;20234;-72
2022/12/29 12:02:36;;;;;;;3.13;1.57;;;12.10;99.90;;;;;;5061104;28;20204;-72
2022/12/29 12:05:21;;;;;;;3.67;2.10;;;12.00;99.90;;;;;;5056642;28;20215;-75
2022/12/29 12:07:52;;;;;;;3.30;1.37;;;11.90;99.90;;;;;;5068259;28;20281;-74
2022/12/29 12:10:29;;;;;;;2.63;1.07;;;11.80;99.90;;;;;;5049516;28;20214;-73
2022/12/29 12:13:13;;;;;;;2.13;1.50;;;11.70;99.90;;;;;;5054194;28;20202;-74
2022/12/29 12:15:52;;;;;;;2.57;1.53;;;11.50;99.90;;;;;;5057932;28;20207;-74
2022/12/29 12:18:40;;;;;;;0.87;0.50;;;11.50;99.90;;;;;;5056808;28;20182;-73
2022/12/29 12:21:24;;;;;;;2.77;0.90;;;11.30;99.90;;;;;;5044077;28;20173;-73
2022/12/29 12:24:20;;;;;;;0.87;0.70;;;11.30;99.90;;;;;;5053659;28;20229;-74
2022/12/29 12:27:07;;;;;;;1.70;0.70;;;11.30;99.90;;;;;;5052204;28;20204;-73
2022/12/29 12:29:50;;;;;;;0.97;0.50;;;11.20;99.90;;;;;;5055868;28;20707;-73
2022/12/29 12:32:24;;;;;;;1.13;0.80;;;11.30;99.90;;;;;;5056484;28;20289;-73
2022/12/29 12:34:50;;;;;;;1.03;0.70;;;11.20;99.90;;;;;;5056259;28;20203;-74
2022/12/29 12:37:25;;;;;;;2.80;0.90;;;11.20;99.90;;;;;;5059555;28;20203;-72
2022/12/29 12:40:02;;;;;;;4.87;0.70;;;11.30;99.90;;;;;;5053381;28;20212;-74
2022/12/29 12:42:49;;;;;;;2.67;1.00;;;11.30;99.90;;;;;;5055831;28;20232;-72
2022/12/29 12:45:36;;;;;;;0.87;0.80;;;11.20;99.90;;;;;;5051050;28;20175;-74
2022/12/29 12:48:10;;;;;;;1.10;0.73;;;11.20;99.90;;;;;;5043202;28;20264;-73
2022/12/29 12:50:45;;;;;;;0.83;0.63;;;11.20;99.90;;;;;;5057673;28;20207;-74
2022/12/29 12:53:29;;;;;;;2.10;1.30;;;11.20;99.90;;;;;;5053939;28;20581;-74
2022/12/29 12:56:06;;;;;;;2.20;0.70;;;11.20;99.90;;;;;;5062192;28;20665;-73
2022/12/29 12:58:41;;;;;;;3.17;0.93;;;11.20;99.90;;;;;;5054361;28;20214;-74
2022/12/29 13:01:54;;;;;;;1.27;0.60;;;11.20;99.90;;;;;;5051931;28;20215;-73
2022/12/29 13:04:38;;;;;;;1.00;0.87;;;11.20;99.90;;;;;;5009902;28;20267;-73
2022/12/29 13:07:36;;;;;;;1.30;0.73;;;11.20;99.90;;;;;;5051959;28;20653;-73
2022/12/29 13:10:22;;;;;;;1.83;0.60;;;11.20;99.90;;;;;;5058282;28;20220;-74
2022/12/29 13:13:13;;;;;;;1.53;0.97;;;11.20;99.90;;;;;;5052813;28;20216;-73
2022/12/29 13:15:57;;;;;;;2.97;0.70;;;11.20;99.90;;;;;;5052188;28;20356;-72
2022/12/29 13:18:41;;;;;;;3.30;2.10;;;11.20;99.90;;;;;;5053206;28;20253;-71
2022/12/29 13:21:50;;;;;;;2.23;1.10;;;11.20;99.90;;;;;;5052952;28;20645;-72
2022/12/29 13:24:19;;;;;;;1.63;0.93;;;11.20;99.90;;;;;;5057075;28;20211;-73
2022/12/29 13:26:58;;;;;;;2.60;1.00;;;11.20;99.90;;;;;;5054085;28;20211;-73
2022/12/29 13:29:50;;;;;;;2.60;1.00;;;11.20;99.90;;;;;;5054177;28;20261;-73
2022/12/29 13:32:43;;;;;;;2.50;0.87;;;11.20;99.90;;;;;;5054530;28;20199;-75
2022/12/29 13:35:41;;;;;;;1.60;0.80;;;11.20;99.90;;;;;;5047979;28;20622;-75
2022/12/29 13:38:31;;;;;;;1.03;0.90;;;11.20;99.90;;;;;;5054486;28;20204;-74
2022/12/29 13:41:03;;;;;;;1.30;0.97;;;11.20;99.90;;;;;;5050859;28;20234;-74
2022/12/29 13:43:34;;;;;;;3.47;1.07;;;11.20;99.90;;;;;;5057050;28;20203;-74
2022/12/29 13:46:06;;;;;;;2.40;1.00;;;11.20;99.90;;;;;;5054277;28;20879;-74
2022/12/29 13:49:04;;;;;;;3.27;1.10;;;11.20;99.90;;;;;;5058109;28;20673;-74
2022/12/29 13:51:30;;;;;;;2.00;1.17;;;11.20;99.90;;;;;;5050306;28;20211;-74